Gloucester, New Jersey
Current Conditions -  °F | °C
As of 1:54 PM on Thursday 23 Oct 2014 (Local Time) from KPHL Reporting Station
Overcast Overcast  
Wind Chill: 56°   Ceiling: 4500
Heat Index: 56°   Visibility: 10mi
Dew Point: 45°   Wind: 16mph
Humidity: 67%   Direction: 330°NNW
Pressure: 29.78"   Gusts: 26mph
Location:  39.8669°N, 75.093°W
Report Text: KPHL 231754Z 33014G23KT 10SM FEW020 BKN045 OVC070 13/07 A2978 RMK AO2 SLP082 60000 T01330072 10133 20106 58003 PNO $
Loading
Personal Weather Stations






























Interactive Weather Map
Tropical Storm Tracking
New forecast layout! Learn more

10-Day Weather Forecast

Advertisements
Track Severe Weather on mobile